sensor_id;sensor_type;location;lat;lon;timestamp;temperature;humidity
7399;DHT22;3740;50.700;7.184;2023-03-17T00:00:41;10.30;99.30
7399;DHT22;3740;50.700;7.184;2023-03-17T00:03:26;10.40;99.30
7399;DHT22;3740;50.700;7.184;2023-03-17T00:05:56;10.40;99.10
7399;DHT22;3740;50.700;7.184;2023-03-17T00:08:31;10.50;99.10
7399;DHT22;3740;50.700;7.184;2023-03-17T00:10:57;10.50;99.00
7399;DHT22;3740;50.700;7.184;2023-03-17T00:13:23;10.40;99.00
7399;DHT22;3740;50.700;7.184;2023-03-17T00:15:59;10.40;99.10
7399;DHT22;3740;50.700;7.184;2023-03-17T00:18:26;10.40;99.20
7399;DHT22;3740;50.700;7.184;2023-03-17T00:20:52;10.40;98.90
7399;DHT22;3740;50.700;7.184;2023-03-17T00:23:20;10.50;98.90
7399;DHT22;3740;50.700;7.184;2023-03-17T00:25:46;10.50;99.00
7399;DHT22;3740;50.700;7.184;2023-03-17T00:28:16;10.50;99.20
7399;DHT22;3740;50.700;7.184;2023-03-17T00:30:42;10.50;98.80
7399;DHT22;3740;50.700;7.184;2023-03-17T00:33:09;10.40;99.00
7399;DHT22;3740;50.700;7.184;2023-03-17T00:35:35;10.50;98.90
7399;DHT22;3740;50.700;7.184;2023-03-17T00:38:01;10.50;99.10
7399;DHT22;3740;50.700;7.184;2023-03-17T00:40:29;10.40;99.00
7399;DHT22;3740;50.700;7.184;2023-03-17T00:42:56;10.40;99.20
7399;DHT22;3740;50.700;7.184;2023-03-17T00:45:23;10.40;99.30
7399;DHT22;3740;50.700;7.184;2023-03-17T00:47:51;10.40;99.30
7399;DHT22;3740;50.700;7.184;2023-03-17T00:50:20;10.40;99.50
7399;DHT22;3740;50.700;7.184;2023-03-17T00:52:50;10.30;99.30
7399;DHT22;3740;50.700;7.184;2023-03-17T00:55:17;10.40;99.50
7399;DHT22;3740;50.700;7.184;2023-03-17T00:57:44;10.40;99.60
7399;DHT22;3740;50.700;7.184;2023-03-17T01:02:46;10.10;99.90
7399;DHT22;3740;50.700;7.184;2023-03-17T01:05:12;10.10;99.90
7399;DHT22;3740;50.700;7.184;2023-03-17T01:07:38;10.00;99.90
7399;DHT22;3740;50.700;7.184;2023-03-17T01:10:15;10.00;99.90
7399;DHT22;3740;50.700;7.184;2023-03-17T01:12:44;10.00;99.90
7399;DHT22;3740;50.700;7.184;2023-03-17T01:15:11;9.90;99.90
7399;DHT22;3740;50.700;7.184;2023-03-17T01:17:38;9.80;99.90
7399;DHT22;3740;50.700;7.184;2023-03-17T01:20:05;9.90;99.90
7399;DHT22;3740;50.700;7.184;2023-03-17T01:22:31;9.90;99.90
7399;DHT22;3740;50.700;7.184;2023-03-17T01:24:57;9.80;99.90
7399;DHT22;3740;50.700;7.184;2023-03-17T01:27:22;9.70;99.90
7399;DHT22;3740;50.700;7.184;2023-03-17T01:29:52;9.80;99.90
7399;DHT22;3740;50.700;7.184;2023-03-17T01:32:18;9.80;99.90
7399;DHT22;3740;50.700;7.184;2023-03-17T01:34:44;9.80;99.90
7399;DHT22;3740;50.700;7.184;2023-03-17T01:37:10;9.60;99.90
7399;DHT22;3740;50.700;7.184;2023-03-17T01:39:35;9.60;99.90
7399;DHT22;3740;50.700;7.184;2023-03-17T01:42:01;9.80;99.90
7399;DHT22;3740;50.700;7.184;2023-03-17T01:44:27;9.90;99.90
7399;DHT22;3740;50.700;7.184;2023-03-17T01:46:53;9.90;99.90
7399;DHT22;3740;50.700;7.184;2023-03-17T01:51:47;9.90;99.90
7399;DHT22;3740;50.700;7.184;2023-03-17T01:54:41;10.00;99.90
7399;DHT22;3740;50.700;7.184;2023-03-17T01:57:12;9.90;99.90
7399;DHT22;3740;50.700;7.184;2023-03-17T01:59:48;10.00;99.90
7399;DHT22;3740;50.700;7.184;2023-03-17T02:02:19;10.10;99.90
7399;DHT22;3740;50.700;7.184;2023-03-17T02:04:47;10.10;99.90
7399;DHT22;3740;50.700;7.184;2023-03-17T02:07:13;10.10;99.90
7399;DHT22;3740;50.700;7.184;2023-03-17T02:09:39;10.10;99.90
7399;DHT22;3740;50.700;7.184;2023-03-17T02:12:05;10.10;99.90
7399;DHT22;3740;50.700;7.184;2023-03-17T02:14:32;10.00;99.90
7399;DHT22;3740;50.700;7.184;2023-03-17T02:16:58;10.00;99.90
7399;DHT22;3740;50.700;7.184;2023-03-17T02:19:24;9.90;99.90
7399;DHT22;3740;50.700;7.184;2023-03-17T02:21:52;9.90;99.90
7399;DHT22;3740;50.700;7.184;2023-03-17T02:24:32;9.90;99.90
7399;DHT22;3740;50.700;7.184;2023-03-17T02:27:25;9.80;99.90
7399;DHT22;3740;50.700;7.184;2023-03-17T02:29:49;9.80;99.90
7399;DHT22;3740;50.700;7.184;2023-03-17T02:32:16;9.80;99.90
7399;DHT22;3740;50.700;7.184;2023-03-17T02:34:43;9.80;99.90
7399;DHT22;3740;50.700;7.184;2023-03-17T02:37:09;9.80;99.90
7399;DHT22;3740;50.700;7.184;2023-03-17T02:39:34;9.70;99.90
7399;DHT22;3740;50.700;7.184;2023-03-17T02:42:00;9.70;99.90
7399;DHT22;3740;50.700;7.184;2023-03-17T02:44:26;9.70;99.90
7399;DHT22;3740;50.700;7.184;2023-03-17T02:46:52;9.80;99.90
7399;DHT22;3740;50.700;7.184;2023-03-17T02:49:18;9.90;99.90
7399;DHT22;3740;50.700;7.184;2023-03-17T02:51:43;9.80;99.90
7399;DHT22;3740;50.700;7.184;2023-03-17T02:54:10;9.80;99.90
7399;DHT22;3740;50.700;7.184;2023-03-17T02:56:36;9.70;99.90
7399;DHT22;3740;50.700;7.184;2023-03-17T02:59:02;9.60;99.90
7399;DHT22;3740;50.700;7.184;2023-03-17T03:01:28;9.50;99.90
7399;DHT22;3740;50.700;7.184;2023-03-17T03:03:55;9.50;99.90
7399;DHT22;3740;50.700;7.184;2023-03-17T03:06:21;9.40;99.90
7399;DHT22;3740;50.700;7.184;2023-03-17T03:08:48;9.40;99.90
7399;DHT22;3740;50.700;7.184;2023-03-17T03:11:14;9.30;99.90
7399;DHT22;3740;50.700;7.184;2023-03-17T03:13:39;9.30;99.90
7399;DHT22;3740;50.700;7.184;2023-03-17T03:16:06;9.20;99.90
7399;DHT22;3740;50.700;7.184;2023-03-17T03:18:31;9.00;99.90
7399;DHT22;3740;50.700;7.184;2023-03-17T03:20:57;9.00;99.90
7399;DHT22;3740;50.700;7.184;2023-03-17T03:23:22;9.00;99.90
7399;DHT22;3740;50.700;7.184;2023-03-17T03:25:48;9.00;99.90
7399;DHT22;3740;50.700;7.184;2023-03-17T03:28:14;9.00;99.90
7399;DHT22;3740;50.700;7.184;2023-03-17T03:30:40;8.90;99.90
7399;DHT22;3740;50.700;7.184;2023-03-17T03:33:06;8.90;99.90
7399;DHT22;3740;50.700;7.184;2023-03-17T03:35:32;8.70;99.90
7399;DHT22;3740;50.700;7.184;2023-03-17T03:37:59;8.60;99.90
7399;DHT22;3740;50.700;7.184;2023-03-17T03:40:25;8.70;99.90
7399;DHT22;3740;50.700;7.184;2023-03-17T03:42:51;8.70;99.90
7399;DHT22;3740;50.700;7.184;2023-03-17T03:45:17;8.80;99.90
7399;DHT22;3740;50.700;7.184;2023-03-17T03:47:43;8.70;99.90
7399;DHT22;3740;50.700;7.184;2023-03-17T03:50:09;8.50;99.90
7399;DHT22;3740;50.700;7.184;2023-03-17T03:52:35;8.50;99.90
7399;DHT22;3740;50.700;7.184;2023-03-17T03:55:01;8.50;99.90
7399;DHT22;3740;50.700;7.184;2023-03-17T03:57:27;8.50;99.90
7399;DHT22;3740;50.700;7.184;2023-03-17T03:59:52;8.60;99.90
7399;DHT22;3740;50.700;7.184;2023-03-17T04:02:18;8.60;99.90
7399;DHT22;3740;50.700;7.184;2023-03-17T04:04:44;8.60;99.90
7399;DHT22;3740;50.700;7.184;2023-03-17T04:07:09;8.60;99.90
7399;DHT22;3740;50.700;7.184;2023-03-17T04:09:35;8.60;99.90
7399;DHT22;3740;50.700;7.184;2023-03-17T04:12:02;8.70;99.90
7399;DHT22;3740;50.700;7.184;2023-03-17T04:14:28;8.70;99.90
7399;DHT22;3740;50.700;7.184;2023-03-17T04:16:53;8.60;99.90
7399;DHT22;3740;50.700;7.184;2023-03-17T04:19:19;8.60;99.90
7399;DHT22;3740;50.700;7.184;2023-03-17T04:21:46;8.50;99.90
7399;DHT22;3740;50.700;7.184;2023-03-17T04:24:12;8.40;99.90
7399;DHT22;3740;50.700;7.184;2023-03-17T04:26:38;8.50;99.90
7399;DHT22;3740;50.700;7.184;2023-03-17T04:29:03;8.50;99.90
7399;DHT22;3740;50.700;7.184;2023-03-17T04:31:32;8.50;99.90
7399;DHT22;3740;50.700;7.184;2023-03-17T04:33:58;8.50;99.90
7399;DHT22;3740;50.700;7.184;2023-03-17T04:36:23;8.50;99.90
7399;DHT22;3740;50.700;7.184;2023-03-17T04:38:49;8.50;99.90
7399;DHT22;3740;50.700;7.184;2023-03-17T04:41:15;8.40;99.90
7399;DHT22;3740;50.700;7.184;2023-03-17T04:43:40;8.30;99.90
7399;DHT22;3740;50.700;7.184;2023-03-17T04:46:07;8.30;99.90
7399;DHT22;3740;50.700;7.184;2023-03-17T04:48:33;8.40;99.90
7399;DHT22;3740;50.700;7.184;2023-03-17T04:51:03;8.40;99.90
7399;DHT22;3740;50.700;7.184;2023-03-17T04:53:28;8.40;99.90
7399;DHT22;3740;50.700;7.184;2023-03-17T04:55:54;8.50;99.90
7399;DHT22;3740;50.700;7.184;2023-03-17T04:58:21;8.40;99.90
7399;DHT22;3740;50.700;7.184;2023-03-17T05:00:47;8.30;99.90
7399;DHT22;3740;50.700;7.184;2023-03-17T05:03:12;8.20;99.90
7399;DHT22;3740;50.700;7.184;2023-03-17T05:05:38;8.20;99.90
7399;DHT22;3740;50.700;7.184;2023-03-17T05:08:04;8.30;99.90
7399;DHT22;3740;50.700;7.184;2023-03-17T05:10:30;8.20;99.90
7399;DHT22;3740;50.700;7.184;2023-03-17T05:12:55;8.30;99.90
7399;DHT22;3740;50.700;7.184;2023-03-17T05:15:21;8.30;99.90
7399;DHT22;3740;50.700;7.184;2023-03-17T05:17:46;8.30;99.90
7399;DHT22;3740;50.700;7.184;2023-03-17T05:20:12;8.30;99.90
7399;DHT22;3740;50.700;7.184;2023-03-17T05:22:39;8.40;99.90
7399;DHT22;3740;50.700;7.184;2023-03-17T05:25:05;8.40;99.90
7399;DHT22;3740;50.700;7.184;2023-03-17T05:27:31;8.50;99.90
7399;DHT22;3740;50.700;7.184;2023-03-17T05:29:57;8.60;99.90
7399;DHT22;3740;50.700;7.184;2023-03-17T05:32:22;8.60;99.90
7399;DHT22;3740;50.700;7.184;2023-03-17T05:34:49;8.80;99.90
7399;DHT22;3740;50.700;7.184;2023-03-17T05:37:14;8.80;99.90
7399;DHT22;3740;50.700;7.184;2023-03-17T05:39:40;8.80;99.90
7399;DHT22;3740;50.700;7.184;2023-03-17T05:42:06;8.80;99.90
7399;DHT22;3740;50.700;7.184;2023-03-17T05:44:33;8.80;99.90
7399;DHT22;3740;50.700;7.184;2023-03-17T05:46:58;8.70;99.90
7399;DHT22;3740;50.700;7.184;2023-03-17T05:49:25;8.70;99.90
7399;DHT22;3740;50.700;7.184;2023-03-17T05:51:51;8.70;99.90
7399;DHT22;3740;50.700;7.184;2023-03-17T05:54:17;8.70;99.90
7399;DHT22;3740;50.700;7.184;2023-03-17T05:56:42;8.70;99.90
7399;DHT22;3740;50.700;7.184;2023-03-17T05:59:08;8.70;99.90
7399;DHT22;3740;50.700;7.184;2023-03-17T06:01:35;8.70;99.90
7399;DHT22;3740;50.700;7.184;2023-03-17T06:04:01;8.80;99.90
7399;DHT22;3740;50.700;7.184;2023-03-17T06:06:27;8.80;99.90
7399;DHT22;3740;50.700;7.184;2023-03-17T06:08:53;8.80;99.90
7399;DHT22;3740;50.700;7.184;2023-03-17T06:11:19;9.00;99.90
7399;DHT22;3740;50.700;7.184;2023-03-17T06:13:46;8.90;99.90
7399;DHT22;3740;50.700;7.184;2023-03-17T06:16:12;9.00;99.90
7399;DHT22;3740;50.700;7.184;2023-03-17T06:18:38;9.10;99.90
7399;DHT22;3740;50.700;7.184;2023-03-17T06:21:04;9.20;99.90
7399;DHT22;3740;50.700;7.184;2023-03-17T06:23:29;9.20;99.90
7399;DHT22;3740;50.700;7.184;2023-03-17T06:25:55;9.20;99.90
7399;DHT22;3740;50.700;7.184;2023-03-17T06:28:21;9.30;99.90
7399;DHT22;3740;50.700;7.184;2023-03-17T06:30:47;9.30;99.90
7399;DHT22;3740;50.700;7.184;2023-03-17T06:33:16;9.30;99.90
7399;DHT22;3740;50.700;7.184;2023-03-17T06:35:43;9.30;99.90
7399;DHT22;3740;50.700;7.184;2023-03-17T06:38:09;9.30;99.90
7399;DHT22;3740;50.700;7.184;2023-03-17T06:40:34;9.40;99.90
7399;DHT22;3740;50.700;7.184;2023-03-17T06:43:01;9.40;99.90
7399;DHT22;3740;50.700;7.184;2023-03-17T06:45:27;9.40;99.90
7399;DHT22;3740;50.700;7.184;2023-03-17T06:47:53;9.40;99.90
7399;DHT22;3740;50.700;7.184;2023-03-17T06:50:18;9.40;99.90
7399;DHT22;3740;50.700;7.184;2023-03-17T06:52:44;9.40;99.90
7399;DHT22;3740;50.700;7.184;2023-03-17T06:55:11;9.50;99.90
7399;DHT22;3740;50.700;7.184;2023-03-17T06:57:36;9.50;99.90
7399;DHT22;3740;50.700;7.184;2023-03-17T07:00:03;9.70;99.90
7399;DHT22;3740;50.700;7.184;2023-03-17T07:02:31;9.80;99.90
7399;DHT22;3740;50.700;7.184;2023-03-17T07:04:58;9.90;99.90
7399;DHT22;3740;50.700;7.184;2023-03-17T07:07:25;9.90;99.90
7399;DHT22;3740;50.700;7.184;2023-03-17T07:09:51;9.90;99.90
7399;DHT22;3740;50.700;7.184;2023-03-17T07:12:18;10.00;99.90
7399;DHT22;3740;50.700;7.184;2023-03-17T07:14:44;10.00;99.90
7399;DHT22;3740;50.700;7.184;2023-03-17T07:17:11;10.10;99.90
7399;DHT22;3740;50.700;7.184;2023-03-17T07:19:37;10.10;99.90
7399;DHT22;3740;50.700;7.184;2023-03-17T07:22:03;10.10;99.90
7399;DHT22;3740;50.700;7.184;2023-03-17T07:24:28;10.10;99.90
7399;DHT22;3740;50.700;7.184;2023-03-17T07:26:54;10.10;99.90
7399;DHT22;3740;50.700;7.184;2023-03-17T07:29:20;10.20;99.90
7399;DHT22;3740;50.700;7.184;2023-03-17T07:31:47;10.20;99.90
7399;DHT22;3740;50.700;7.184;2023-03-17T07:34:14;10.30;99.90
7399;DHT22;3740;50.700;7.184;2023-03-17T07:36:40;10.40;99.90
7399;DHT22;3740;50.700;7.184;2023-03-17T07:39:06;10.50;99.90
7399;DHT22;3740;50.700;7.184;2023-03-17T07:41:32;10.50;99.90
7399;DHT22;3740;50.700;7.184;2023-03-17T07:43:58;10.60;99.90
7399;DHT22;3740;50.700;7.184;2023-03-17T07:46:23;10.70;99.90
7399;DHT22;3740;50.700;7.184;2023-03-17T07:48:49;10.70;99.90
7399;DHT22;3740;50.700;7.184;2023-03-17T07:51:17;10.80;99.90
7399;DHT22;3740;50.700;7.184;2023-03-17T07:53:45;10.80;99.90
7399;DHT22;3740;50.700;7.184;2023-03-17T07:56:12;10.90;99.90
7399;DHT22;3740;50.700;7.184;2023-03-17T07:58:38;10.90;99.90
7399;DHT22;3740;50.700;7.184;2023-03-17T08:01:04;11.00;99.90
7399;DHT22;3740;50.700;7.184;2023-03-17T08:03:30;11.00;99.90
7399;DHT22;3740;50.700;7.184;2023-03-17T08:05:56;11.00;99.90
7399;DHT22;3740;50.700;7.184;2023-03-17T08:08:23;11.10;99.90
7399;DHT22;3740;50.700;7.184;2023-03-17T08:10:50;11.20;99.90
7399;DHT22;3740;50.700;7.184;2023-03-17T08:13:16;11.30;99.90
7399;DHT22;3740;50.700;7.184;2023-03-17T08:15:43;11.30;99.90
7399;DHT22;3740;50.700;7.184;2023-03-17T08:18:09;11.40;99.90
7399;DHT22;3740;50.700;7.184;2023-03-17T08:20:35;11.40;99.90
7399;DHT22;3740;50.700;7.184;2023-03-17T08:23:01;11.50;99.90
7399;DHT22;3740;50.700;7.184;2023-03-17T08:25:27;11.50;99.90
7399;DHT22;3740;50.700;7.184;2023-03-17T08:27:53;11.50;99.90
7399;DHT22;3740;50.700;7.184;2023-03-17T08:30:20;11.50;99.90
7399;DHT22;3740;50.700;7.184;2023-03-17T08:32:46;11.50;99.90
7399;DHT22;3740;50.700;7.184;2023-03-17T08:35:16;11.50;99.90
7399;DHT22;3740;50.700;7.184;2023-03-17T08:37:44;11.60;99.90
7399;DHT22;3740;50.700;7.184;2023-03-17T08:40:12;11.70;99.90
7399;DHT22;3740;50.700;7.184;2023-03-17T08:42:38;11.80;99.90
7399;DHT22;3740;50.700;7.184;2023-03-17T08:45:04;11.80;99.90
7399;DHT22;3740;50.700;7.184;2023-03-17T08:47:32;11.90;99.90
7399;DHT22;3740;50.700;7.184;2023-03-17T08:49:58;12.70;99.90
7399;DHT22;3740;50.700;7.184;2023-03-17T08:52:25;12.00;99.90
7399;DHT22;3740;50.700;7.184;2023-03-17T08:54:52;12.00;99.90
7399;DHT22;3740;50.700;7.184;2023-03-17T08:57:18;12.10;99.90
7399;DHT22;3740;50.700;7.184;2023-03-17T08:59:46;12.20;99.90
7399;DHT22;3740;50.700;7.184;2023-03-17T09:02:12;12.40;99.80
7399;DHT22;3740;50.700;7.184;2023-03-17T09:04:39;12.50;99.60
7399;DHT22;3740;50.700;7.184;2023-03-17T09:07:06;12.50;99.20
7399;DHT22;3740;50.700;7.184;2023-03-17T09:09:32;12.60;99.10
7399;DHT22;3740;50.700;7.184;2023-03-17T09:12:00;12.70;98.90
7399;DHT22;3740;50.700;7.184;2023-03-17T09:14:27;12.80;98.90
7399;DHT22;3740;50.700;7.184;2023-03-17T09:16:53;12.90;98.30
7399;DHT22;3740;50.700;7.184;2023-03-17T09:19:19;12.70;97.90
7399;DHT22;3740;50.700;7.184;2023-03-17T09:21:44;13.10;97.70
7399;DHT22;3740;50.700;7.184;2023-03-17T09:24:10;13.10;97.70
7399;DHT22;3740;50.700;7.184;2023-03-17T09:26:36;13.10;97.70
7399;DHT22;3740;50.700;7.184;2023-03-17T09:29:02;13.20;98.00
7399;DHT22;3740;50.700;7.184;2023-03-17T09:31:29;13.20;97.90
7399;DHT22;3740;50.700;7.184;2023-03-17T09:33:54;13.30;97.90
7399;DHT22;3740;50.700;7.184;2023-03-17T09:36:20;13.40;98.00
7399;DHT22;3740;50.700;7.184;2023-03-17T09:38:46;13.60;97.90
7399;DHT22;3740;50.700;7.184;2023-03-17T09:49:36;13.80;97.00
7399;DHT22;3740;50.700;7.184;2023-03-17T09:52:02;13.90;97.10
7399;DHT22;3740;50.700;7.184;2023-03-17T09:54:33;13.90;96.90
7399;DHT22;3740;50.700;7.184;2023-03-17T09:59:37;14.20;96.80
7399;DHT22;3740;50.700;7.184;2023-03-17T10:02:27;14.40;96.60
7399;DHT22;3740;50.700;7.184;2023-03-17T10:04:54;14.50;96.40
7399;DHT22;3740;50.700;7.184;2023-03-17T10:10:50;14.60;95.70
7399;DHT22;3740;50.700;7.184;2023-03-17T10:16:16;14.90;95.60
7399;DHT22;3740;50.700;7.184;2023-03-17T10:21:17;15.00;95.00
7399;DHT22;3740;50.700;7.184;2023-03-17T10:23:44;15.10;95.10
7399;DHT22;3740;50.700;7.184;2023-03-17T10:28:52;15.90;95.40
7399;DHT22;3740;50.700;7.184;2023-03-17T10:31:25;15.70;94.70
7399;DHT22;3740;50.700;7.184;2023-03-17T10:33:53;15.70;93.80
7399;DHT22;3740;50.700;7.184;2023-03-17T10:36:37;16.00;94.30
7399;DHT22;3740;50.700;7.184;2023-03-17T10:39:05;16.60;93.50
7399;DHT22;3740;50.700;7.184;2023-03-17T10:41:34;17.70;91.40
7399;DHT22;3740;50.700;7.184;2023-03-17T10:44:00;18.80;88.80
7399;DHT22;3740;50.700;7.184;2023-03-17T10:46:28;20.10;81.90
7399;DHT22;3740;50.700;7.184;2023-03-17T10:48:58;20.60;76.70
7399;DHT22;3740;50.700;7.184;2023-03-17T10:51:32;20.40;75.60
7399;DHT22;3740;50.700;7.184;2023-03-17T10:54:01;21.10;74.20
7399;DHT22;3740;50.700;7.184;2023-03-17T10:56:35;21.10;73.20
7399;DHT22;3740;50.700;7.184;2023-03-17T10:59:27;21.20;71.90
7399;DHT22;3740;50.700;7.184;2023-03-17T11:01:54;22.10;69.80
7399;DHT22;3740;50.700;7.184;2023-03-17T11:04:31;22.70;68.60
7399;DHT22;3740;50.700;7.184;2023-03-17T11:06:59;22.60;65.10
7399;DHT22;3740;50.700;7.184;2023-03-17T11:09:26;21.80;66.60
7399;DHT22;3740;50.700;7.184;2023-03-17T11:14:47;21.30;67.40
7399;DHT22;3740;50.700;7.184;2023-03-17T11:17:38;21.00;68.00
7399;DHT22;3740;50.700;7.184;2023-03-17T11:22:51;20.80;69.30
7399;DHT22;3740;50.700;7.184;2023-03-17T11:25:19;21.00;68.20
7399;DHT22;3740;50.700;7.184;2023-03-17T11:28:07;20.50;67.90
7399;DHT22;3740;50.700;7.184;2023-03-17T11:33:32;19.90;70.60
7399;DHT22;3740;50.700;7.184;2023-03-17T11:39:12;19.20;72.20
7399;DHT22;3740;50.700;7.184;2023-03-17T11:44:40;18.80;73.60
7399;DHT22;3740;50.700;7.184;2023-03-17T11:55:53;19.00;72.90
7399;DHT22;3740;50.700;7.184;2023-03-17T11:58:28;19.10;73.50
7399;DHT22;3740;50.700;7.184;2023-03-17T12:00:59;19.10;73.50
7399;DHT22;3740;50.700;7.184;2023-03-17T12:05:59;19.00;73.60
7399;DHT22;3740;50.700;7.184;2023-03-17T12:08:40;18.60;73.50
7399;DHT22;3740;50.700;7.184;2023-03-17T12:11:12;18.20;75.70
7399;DHT22;3740;50.700;7.184;2023-03-17T12:14:03;18.20;76.80
7399;DHT22;3740;50.700;7.184;2023-03-17T12:16:30;18.40;77.50
7399;DHT22;3740;50.700;7.184;2023-03-17T12:19:22;18.50;75.90
7399;DHT22;3740;50.700;7.184;2023-03-17T12:21:59;18.40;76.20
7399;DHT22;3740;50.700;7.184;2023-03-17T12:27:27;18.50;77.80
7399;DHT22;3740;50.700;7.184;2023-03-17T12:29:58;18.50;77.00
7399;DHT22;3740;50.700;7.184;2023-03-17T12:32:52;18.30;77.60
7399;DHT22;3740;50.700;7.184;2023-03-17T12:35:31;18.30;77.30
7399;DHT22;3740;50.700;7.184;2023-03-17T12:38:00;18.30;78.40
7399;DHT22;3740;50.700;7.184;2023-03-17T12:43:13;18.00;78.90
7399;DHT22;3740;50.700;7.184;2023-03-17T12:46:09;18.20;80.60
7399;DHT22;3740;50.700;7.184;2023-03-17T12:48:46;18.10;78.80
7399;DHT22;3740;50.700;7.184;2023-03-17T12:51:29;17.90;79.90
7399;DHT22;3740;50.700;7.184;2023-03-17T12:53:58;18.10;81.10
7399;DHT22;3740;50.700;7.184;2023-03-17T12:56:32;18.60;79.90
7399;DHT22;3740;50.700;7.184;2023-03-17T12:59:06;18.90;79.30
7399;DHT22;3740;50.700;7.184;2023-03-17T13:01:40;19.30;76.50
7399;DHT22;3740;50.700;7.184;2023-03-17T13:04:27;19.40;75.80
7399;DHT22;3740;50.700;7.184;2023-03-17T13:07:15;19.80;75.40
7399;DHT22;3740;50.700;7.184;2023-03-17T13:17:45;19.80;75.10
7399;DHT22;3740;50.700;7.184;2023-03-17T13:20:18;19.90;75.10
7399;DHT22;3740;50.700;7.184;2023-03-17T13:23:14;19.70;73.60
7399;DHT22;3740;50.700;7.184;2023-03-17T13:38:18;18.00;80.20
7399;DHT22;3740;50.700;7.184;2023-03-17T13:49:26;18.30;79.40
7399;DHT22;3740;50.700;7.184;2023-03-17T13:52:10;18.10;80.10
7399;DHT22;3740;50.700;7.184;2023-03-17T13:54:50;18.00;80.90
7399;DHT22;3740;50.700;7.184;2023-03-17T13:57:27;18.00;80.60
7399;DHT22;3740;50.700;7.184;2023-03-17T14:00:02;17.90;81.30
7399;DHT22;3740;50.700;7.184;2023-03-17T14:02:31;17.50;81.60
7399;DHT22;3740;50.700;7.184;2023-03-17T14:05:03;17.50;82.80
7399;DHT22;3740;50.700;7.184;2023-03-17T14:07:45;17.50;82.90
7399;DHT22;3740;50.700;7.184;2023-03-17T14:10:23;17.30;82.90
7399;DHT22;3740;50.700;7.184;2023-03-17T14:18:37;17.00;85.20
7399;DHT22;3740;50.700;7.184;2023-03-17T14:21:06;16.90;85.90
7399;DHT22;3740;50.700;7.184;2023-03-17T14:23:34;16.70;86.90
7399;DHT22;3740;50.700;7.184;2023-03-17T14:26:02;16.70;86.70
7399;DHT22;3740;50.700;7.184;2023-03-17T14:28:37;16.70;86.50
7399;DHT22;3740;50.700;7.184;2023-03-17T14:31:05;16.70;87.20
7399;DHT22;3740;50.700;7.184;2023-03-17T14:33:34;16.70;87.70
7399;DHT22;3740;50.700;7.184;2023-03-17T14:36:06;16.60;87.70
7399;DHT22;3740;50.700;7.184;2023-03-17T14:38:34;16.60;87.90
7399;DHT22;3740;50.700;7.184;2023-03-17T14:41:14;16.70;88.90
7399;DHT22;3740;50.700;7.184;2023-03-17T14:43:41;16.60;88.00
7399;DHT22;3740;50.700;7.184;2023-03-17T14:46:33;16.50;89.50
7399;DHT22;3740;50.700;7.184;2023-03-17T14:49:00;16.40;90.00
7399;DHT22;3740;50.700;7.184;2023-03-17T14:51:37;16.30;89.50
7399;DHT22;3740;50.700;7.184;2023-03-17T14:54:17;16.10;90.20
7399;DHT22;3740;50.700;7.184;2023-03-17T14:56:49;16.10;90.30
7399;DHT22;3740;50.700;7.184;2023-03-17T14:59:29;16.10;90.20
7399;DHT22;3740;50.700;7.184;2023-03-17T15:01:58;16.00;90.10
7399;DHT22;3740;50.700;7.184;2023-03-17T15:04:29;16.00;90.40
7399;DHT22;3740;50.700;7.184;2023-03-17T15:07:05;15.90;90.50
7399;DHT22;3740;50.700;7.184;2023-03-17T15:09:36;15.90;90.60
7399;DHT22;3740;50.700;7.184;2023-03-17T15:12:14;15.90;90.60
7399;DHT22;3740;50.700;7.184;2023-03-17T15:14:40;15.90;90.80
7399;DHT22;3740;50.700;7.184;2023-03-17T15:17:21;15.80;91.50
7399;DHT22;3740;50.700;7.184;2023-03-17T15:19:50;15.80;91.20
7399;DHT22;3740;50.700;7.184;2023-03-17T15:22:21;15.80;91.30
7399;DHT22;3740;50.700;7.184;2023-03-17T15:27:38;15.80;91.50
7399;DHT22;3740;50.700;7.184;2023-03-17T15:30:04;15.70;91.60
7399;DHT22;3740;50.700;7.184;2023-03-17T15:32:30;15.70;92.00
7399;DHT22;3740;50.700;7.184;2023-03-17T15:34:56;15.70;92.70
7399;DHT22;3740;50.700;7.184;2023-03-17T15:37:30;15.70;92.40
7399;DHT22;3740;50.700;7.184;2023-03-17T15:39:57;15.70;92.30
7399;DHT22;3740;50.700;7.184;2023-03-17T15:42:29;15.70;92.20
7399;DHT22;3740;50.700;7.184;2023-03-17T15:44:55;15.60;92.30
7399;DHT22;3740;50.700;7.184;2023-03-17T15:47:24;15.50;92.60
7399;DHT22;3740;50.700;7.184;2023-03-17T15:49:51;15.50;92.80
7399;DHT22;3740;50.700;7.184;2023-03-17T15:52:21;15.50;93.10
7399;DHT22;3740;50.700;7.184;2023-03-17T15:54:49;15.50;93.60
7399;DHT22;3740;50.700;7.184;2023-03-17T15:57:15;15.40;93.50
7399;DHT22;3740;50.700;7.184;2023-03-17T15:59:42;15.40;93.90
7399;DHT22;3740;50.700;7.184;2023-03-17T16:04:46;15.40;93.60
7399;DHT22;3740;50.700;7.184;2023-03-17T16:07:12;15.40;93.40
7399;DHT22;3740;50.700;7.184;2023-03-17T16:09:38;15.40;93.30
7399;DHT22;3740;50.700;7.184;2023-03-17T16:12:03;15.40;94.30
7399;DHT22;3740;50.700;7.184;2023-03-17T16:14:29;15.30;95.00
7399;DHT22;3740;50.700;7.184;2023-03-17T16:16:55;15.30;93.90
7399;DHT22;3740;50.700;7.184;2023-03-17T16:19:21;15.40;94.30
7399;DHT22;3740;50.700;7.184;2023-03-17T16:21:48;15.40;95.80
7399;DHT22;3740;50.700;7.184;2023-03-17T16:24:22;15.40;95.40
7399;DHT22;3740;50.700;7.184;2023-03-17T16:26:48;15.40;96.00
7399;DHT22;3740;50.700;7.184;2023-03-17T16:29:16;15.40;95.10
7399;DHT22;3740;50.700;7.184;2023-03-17T16:31:44;15.30;95.40
7399;DHT22;3740;50.700;7.184;2023-03-17T16:36:43;15.30;95.90
7399;DHT22;3740;50.700;7.184;2023-03-17T16:39:15;15.20;96.30
7399;DHT22;3740;50.700;7.184;2023-03-17T16:41:41;15.20;96.90
7399;DHT22;3740;50.700;7.184;2023-03-17T16:44:10;15.20;96.90
7399;DHT22;3740;50.700;7.184;2023-03-17T16:46:36;15.20;98.30
7399;DHT22;3740;50.700;7.184;2023-03-17T16:49:02;15.20;99.30
7399;DHT22;3740;50.700;7.184;2023-03-17T16:51:28;15.10;99.00
7399;DHT22;3740;50.700;7.184;2023-03-17T16:53:54;15.10;98.50
7399;DHT22;3740;50.700;7.184;2023-03-17T16:56:21;15.00;99.30
7399;DHT22;3740;50.700;7.184;2023-03-17T16:58:47;15.00;98.20
7399;DHT22;3740;50.700;7.184;2023-03-17T17:01:22;15.00;97.50
7399;DHT22;3740;50.700;7.184;2023-03-17T17:03:48;15.00;96.80
7399;DHT22;3740;50.700;7.184;2023-03-17T17:06:14;15.00;96.60
7399;DHT22;3740;50.700;7.184;2023-03-17T17:08:42;14.90;97.40
7399;DHT22;3740;50.700;7.184;2023-03-17T17:11:08;14.90;96.90
7399;DHT22;3740;50.700;7.184;2023-03-17T17:13:38;14.90;96.40
7399;DHT22;3740;50.700;7.184;2023-03-17T17:16:04;14.90;96.20
7399;DHT22;3740;50.700;7.184;2023-03-17T17:18:30;15.00;95.80
7399;DHT22;3740;50.700;7.184;2023-03-17T17:20:55;15.00;95.30
7399;DHT22;3740;50.700;7.184;2023-03-17T17:23:24;15.00;95.30
7399;DHT22;3740;50.700;7.184;2023-03-17T17:25:51;15.00;95.00
7399;DHT22;3740;50.700;7.184;2023-03-17T17:28:19;15.00;95.30
7399;DHT22;3740;50.700;7.184;2023-03-17T17:30:46;15.00;95.20
7399;DHT22;3740;50.700;7.184;2023-03-17T17:33:13;15.00;95.20
7399;DHT22;3740;50.700;7.184;2023-03-17T17:35:41;15.00;95.40
7399;DHT22;3740;50.700;7.184;2023-03-17T17:38:20;15.00;95.30
7399;DHT22;3740;50.700;7.184;2023-03-17T17:40:46;15.00;95.70
7399;DHT22;3740;50.700;7.184;2023-03-17T17:43:13;15.00;96.20
7399;DHT22;3740;50.700;7.184;2023-03-17T17:45:38;14.90;95.70
7399;DHT22;3740;50.700;7.184;2023-03-17T17:48:04;14.90;95.90
7399;DHT22;3740;50.700;7.184;2023-03-17T17:50:29;14.80;96.70
7399;DHT22;3740;50.700;7.184;2023-03-17T17:52:55;14.70;97.10
7399;DHT22;3740;50.700;7.184;2023-03-17T17:55:27;14.80;97.50
7399;DHT22;3740;50.700;7.184;2023-03-17T17:57:52;14.90;99.20